Time;durP1;ratioP1;P1;durP2;ratioP2;P2;SDS_P1;SDS_P2;PMS_P1;PMS_P2;Temp;Humidity;BMP_temperature;BMP_pressure;BME280_temperature;BME280_humidity;BME280_pressure;Samples;Min_cycle;Max_cycle;Signal;HPM_P1;HPM_P2
2023/08/03 00:01:44;;;;;;;;;;;;;;;24.56;56.71;94192.06;5184500;22;20339;-80
2023/08/03 00:03:47;;;;;;;;;;;;;;;24.56;56.45;94192.06;5185672;22;19927;-78
2023/08/03 00:05:48;;;;;;;;;;;;;;;24.58;56.89;94192.63;5213209;22;19919;-82
2023/08/03 00:07:50;;;;;;;;;;;;;;;24.64;56.38;94200.41;5186350;22;20403;-78
2023/08/03 00:09:53;;;;;;;;;;;;;;;24.70;55.95;94193.22;5210436;22;20218;-80
2023/08/03 00:11:55;;;;;;;;;;;;;;;24.72;55.92;94191.91;5212986;22;20308;-79
2023/08/03 00:13:57;;;;;;;;;;;;;;;24.76;56.02;94191.38;5184879;22;19915;-79
2023/08/03 00:15:59;;;;;;;;;;;;;;;24.71;56.15;94187.59;5184620;22;19938;-79
2023/08/03 00:18:00;;;;;;;;;;;;;;;24.68;56.17;94190.81;5210665;22;19919;-80
2023/08/03 00:20:04;;;;;;;;;;;;;;;24.67;55.83;94191.06;5209975;22;19935;-79
2023/08/03 00:22:06;;;;;;;;;;;;;;;24.67;55.91;94183.84;5213347;22;20033;-80
2023/08/03 00:24:10;;;;;;;;;;;;;;;24.68;55.78;94188.13;5159364;22;19962;-80
2023/08/03 00:26:12;;;;;;;;;;;;;;;24.72;55.72;94183.06;5212391;22;20339;-78
2023/08/03 00:28:14;;;;;;;;;;;;;;;24.71;55.75;94187.59;5160421;22;20366;-79
2023/08/03 00:30:18;;;;;;;;;;;;;;;24.73;55.67;94190.03;5184665;22;19986;-81
2023/08/03 00:32:20;;;;;;;;;;;;;;;24.73;55.85;94182.78;5185647;22;19919;-80
2023/08/03 00:34:24;;;;;;;;;;;;;;;24.71;55.60;94184.13;5212025;22;19915;-78
2023/08/03 00:36:27;;;;;;;;;;;;;;;24.66;55.67;94182.22;5213762;22;19949;-79
2023/08/03 00:38:29;;;;;;;;;;;;;;;24.65;55.47;94188.66;5213124;22;20165;-81
2023/08/03 00:40:32;;;;;;;;;;;;;;;24.64;55.48;94186.22;5211961;22;19981;-78
2023/08/03 00:42:38;;;;;;;;;;;;;;;24.63;55.22;94181.91;5186065;22;20034;-79
2023/08/03 00:44:40;;;;;;;;;;;;;;;24.65;55.38;94179.78;5212156;22;19998;-77
2023/08/03 00:46:42;;;;;;;;;;;;;;;24.67;55.42;94183.03;5184345;22;20305;-79
2023/08/03 00:48:44;;;;;;;;;;;;;;;24.68;55.36;94181.97;5159446;22;20009;-79
2023/08/03 00:50:46;;;;;;;;;;;;;;;24.66;55.44;94182.22;5185412;22;19986;-80
2023/08/03 00:52:48;;;;;;;;;;;;;;;24.65;55.50;94179.78;5183884;22;20236;-79
2023/08/03 00:54:50;;;;;;;;;;;;;;;24.60;55.54;94185.94;5184882;22;19923;-79
2023/08/03 00:56:51;;;;;;;;;;;;;;;24.61;55.60;94189.41;5185021;22;19919;-78
2023/08/03 00:58:54;;;;;;;;;;;;;;;24.60;55.90;94177.91;5214558;22;20070;-79
2023/08/03 01:00:56;;;;;;;;;;;;;;;24.59;55.82;94183.53;5213154;22;20199;-79
2023/08/03 01:02:58;;;;;;;;;;;;;;;24.58;55.94;94185.38;5187025;22;20334;-80
2023/08/03 01:05:00;;;;;;;;;;;;;;;24.56;55.97;94176.78;5185039;22;19919;-81
2023/08/03 01:07:02;;;;;;;;;;;;;;;24.55;56.00;94177.88;5213687;22;19934;-80
2023/08/03 01:09:07;;;;;;;;;;;;;;;24.51;56.65;94185.63;5212390;22;19969;-79
2023/08/03 01:11:08;;;;;;;;;;;;;;;24.51;56.39;94187.50;5213878;22;19915;-80
2023/08/03 01:13:10;;;;;;;;;;;;;;;24.46;56.73;94182.09;5212693;22;19922;-78
2023/08/03 01:15:12;;;;;;;;;;;;;;;24.45;56.78;94181.25;5161058;22;19924;-80
2023/08/03 01:17:14;;;;;;;;;;;;;;;24.44;56.98;94189.56;5213986;22;19914;-79
2023/08/03 01:19:16;;;;;;;;;;;;;;;24.43;57.19;94187.94;5212976;22;19938;-78
2023/08/03 01:21:19;;;;;;;;;;;;;;;24.44;56.94;94184.22;5161782;22;19951;-79
2023/08/03 01:23:21;;;;;;;;;;;;;;;24.39;57.06;94184.97;5215561;22;19990;-78
2023/08/03 01:25:23;;;;;;;;;;;;;;;24.35;57.32;94183.06;5188205;22;19991;-79
2023/08/03 01:27:24;;;;;;;;;;;;;;;24.36;57.28;94182.81;5215381;22;20009;-78
2023/08/03 01:29:26;;;;;;;;;;;;;;;24.35;57.50;94183.88;5215403;22;20318;-80
2023/08/03 01:31:27;;;;;;;;;;;;;;;24.32;57.45;94187.88;5214998;22;19921;-80
2023/08/03 01:33:31;;;;;;;;;;;;;;;24.33;57.62;94191.38;5215887;22;19938;-78
2023/08/03 01:35:36;;;;;;;;;;;;;;;24.31;57.40;94188.13;5215862;22;19919;-78
2023/08/03 01:37:37;;;;;;;;;;;;;;;24.30;57.59;94183.84;5188325;22;19926;-78
2023/08/03 01:39:45;;;;;;;;;;;;;;;24.29;57.54;94187.59;5216194;22;19945;-78
2023/08/03 01:41:47;;;;;;;;;;;;;;;24.28;57.72;94194.00;5216748;22;19937;-80
2023/08/03 01:44:05;;;;;;;;;;;;;;;24.24;57.77;94190.22;5216288;22;19938;-80
2023/08/03 01:46:06;;;;;;;;;;;;;;;24.16;58.00;94185.34;5186423;22;19941;-78
2023/08/03 01:48:08;;;;;;;;;;;;;;;24.11;58.06;94181.56;5214405;22;19984;-80
2023/08/03 01:50:10;;;;;;;;;;;;;;;24.02;58.20;94193.00;5186575;22;20431;-79
2023/08/03 01:52:12;;;;;;;;;;;;;;;23.98;58.27;94190.00;5215080;22;20022;-77
2023/08/03 01:54:14;;;;;;;;;;;;;;;23.99;58.17;94188.97;5213293;22;19977;-81
2023/08/03 01:56:15;;;;;;;;;;;;;;;24.02;58.00;94193.78;5188531;22;20235;-79
2023/08/03 01:58:18;;;;;;;;;;;;;;;24.05;57.72;94192.50;5215700;22;19966;-80
2023/08/03 02:00:20;;;;;;;;;;;;;;;24.05;58.00;94190.63;5217324;22;19919;-80
2023/08/03 02:02:23;;;;;;;;;;;;;;;24.06;57.89;94200.25;5216687;22;20403;-77
2023/08/03 02:04:25;;;;;;;;;;;;;;;24.07;58.11;94195.69;5214391;22;19998;-77
2023/08/03 02:06:27;;;;;;;;;;;;;;;24.09;57.86;94198.94;5213739;22;19919;-80
2023/08/03 02:08:28;;;;;;;;;;;;;;;24.10;57.89;94190.66;5215614;22;19919;-80
2023/08/03 02:10:30;;;;;;;;;;;;;;;24.09;57.95;94194.41;5163004;22;19942;-78
2023/08/03 02:12:32;;;;;;;;;;;;;;;24.07;58.23;94187.66;5219335;22;19982;-78
2023/08/03 02:14:36;;;;;;;;;;;;;;;24.03;58.33;94194.63;5216018;22;19926;-78
2023/08/03 02:16:37;;;;;;;;;;;;;;;23.98;58.52;94189.22;5213045;22;20391;-78
2023/08/03 02:18:41;;;;;;;;;;;;;;;23.93;58.40;94192.66;5212820;22;19970;-79
2023/08/03 02:20:42;;;;;;;;;;;;;;;23.82;58.42;94190.94;5159504;22;19951;-79
2023/08/03 02:22:47;;;;;;;;;;;;;;;23.77;58.58;94185.53;5185821;22;20246;-79
2023/08/03 02:24:48;;;;;;;;;;;;;;;23.77;58.58;94190.88;5184140;22;19915;-80
2023/08/03 02:26:50;;;;;;;;;;;;;;;23.65;58.92;94188.34;5213121;22;20060;-80
2023/08/03 02:28:53;;;;;;;;;;;;;;;23.58;59.12;94183.22;5213699;22;19926;-81
2023/08/03 02:30:54;;;;;;;;;;;;;;;23.54;58.85;94192.00;5185594;22;19915;-80
2023/08/03 02:32:56;;;;;;;;;;;;;;;23.38;59.01;94199.03;5212955;22;20013;-78
2023/08/03 02:35:01;;;;;;;;;;;;;;;23.31;59.40;94200.03;5186707;22;19915;-79
2023/08/03 02:37:02;;;;;;;;;;;;;;;23.23;59.58;94195.16;5213673;22;19926;-78
2023/08/03 02:39:07;;;;;;;;;;;;;;;23.25;59.52;94190.38;5185859;22;20005;-79
2023/08/03 02:41:11;;;;;;;;;;;;;;;23.23;59.43;94194.31;5213011;22;20366;-78
2023/08/03 02:43:13;;;;;;;;;;;;;;;23.24;59.65;94188.72;5161479;22;20022;-77
2023/08/03 02:45:15;;;;;;;;;;;;;;;23.21;59.73;94194.59;5212808;22;19994;-78
2023/08/03 02:47:16;;;;;;;;;;;;;;;23.19;59.57;94198.53;5215029;22;19969;-78
2023/08/03 02:49:18;;;;;;;;;;;;;;;23.12;59.50;94198.72;5212861;22;20311;-80
2023/08/03 02:51:21;;;;;;;;;;;;;;;23.10;59.55;94198.19;5213382;22;19914;-79
2023/08/03 02:53:23;;;;;;;;;;;;;;;23.08;59.41;94201.13;5187563;22;19982;-81
2023/08/03 02:55:24;;;;;;;;;;;;;;;23.09;59.72;94197.38;5213336;22;19957;-79
2023/08/03 02:57:26;;;;;;;;;;;;;;;23.10;59.20;94196.34;5215842;22;20465;-78
2023/08/03 02:59:28;;;;;;;;;;;;;;;23.11;59.34;94199.81;5218156;22;19934;-78
2023/08/03 03:01:29;;;;;;;;;;;;;;;23.12;59.79;94197.94;5195509;22;20334;-77
2023/08/03 03:03:31;;;;;;;;;;;;;;;23.10;59.78;94206.19;5219291;22;19959;-79
2023/08/03 03:05:33;;;;;;;;;;;;;;;23.11;59.84;94207.81;5185538;22;19955;-79
2023/08/03 03:07:35;;;;;;;;;;;;;;;23.16;59.74;94207.88;5186348;22;19922;-79
2023/08/03 03:09:36;;;;;;;;;;;;;;;23.22;59.56;94211.41;5213099;22;19941;-79
2023/08/03 03:11:38;;;;;;;;;;;;;;;23.25;59.35;94211.75;5214061;22;20254;-80
2023/08/03 03:13:40;;;;;;;;;;;;;;;23.28;58.96;94213.91;5215479;22;19937;-83
2023/08/03 03:15:42;;;;;;;;;;;;;;;23.31;58.84;94216.06;5217754;22;19918;-78
2023/08/03 03:17:44;;;;;;;;;;;;;;;23.28;58.96;94215.78;5190163;22;20269;-78
2023/08/03 03:19:46;;;;;;;;;;;;;;;23.14;59.07;94218.00;5190261;22;19915;-78
2023/08/03 03:21:48;;;;;;;;;;;;;;;23.13;59.18;94218.28;5217703;22;19918;-80
2023/08/03 03:23:49;;;;;;;;;;;;;;;23.14;59.21;94226.00;5225958;22;19965;-77
2023/08/03 03:25:51;;;;;;;;;;;;;;;23.18;59.39;94226.34;5234724;22;19929;-81
2023/08/03 03:27:55;;;;;;;;;;;;;;;23.19;59.12;94215.41;5234300;22;19926;-79
2023/08/03 03:29:57;;;;;;;;;;;;;;;23.23;58.95;94218.38;5207304;22;19934;-76
2023/08/03 03:32:00;;;;;;;;;;;;;;;23.26;58.78;94232.06;5233764;22;19914;-78
2023/08/03 03:34:05;;;;;;;;;;;;;;;23.30;58.88;94230.50;5230365;22;19918;-81
2023/08/03 03:36:06;;;;;;;;;;;;;;;23.33;59.05;94223.84;5235046;22;20022;-77
2023/08/03 03:38:08;;;;;;;;;;;;;;;23.36;59.16;94228.69;5235334;22;19914;-78
2023/08/03 03:40:10;;;;;;;;;;;;;;;23.40;58.91;94229.00;5235018;22;19934;-79
2023/08/03 03:42:12;;;;;;;;;;;;;;;23.43;59.05;94223.97;5234462;22;19934;-77
2023/08/03 03:44:13;;;;;;;;;;;;;;;23.45;59.09;94221.84;5230482;22;20494;-77
2023/08/03 03:46:15;;;;;;;;;;;;;;;23.48;59.05;94218.66;5231846;22;19957;-79
2023/08/03 03:48:17;;;;;;;;;;;;;;;23.49;58.83;94233.66;5230320;22;19915;-78
2023/08/03 03:50:19;;;;;;;;;;;;;;;23.50;58.53;94229.91;5203503;22;19966;-80
2023/08/03 03:52:20;;;;;;;;;;;;;;;23.53;58.51;94231.25;5224384;22;19919;-77
2023/08/03 03:54:23;;;;;;;;;;;;;;;23.56;58.86;94236.13;5217346;22;19930;-81
2023/08/03 03:56:24;;;;;;;;;;;;;;;23.60;58.39;94234.56;5213313;22;19925;-80
2023/08/03 03:58:28;;;;;;;;;;;;;;;23.62;58.45;94237.81;5218915;22;19964;-79
2023/08/03 04:00:30;;;;;;;;;;;;;;;23.60;58.48;94226.56;5186725;22;20146;-79
2023/08/03 04:02:32;;;;;;;;;;;;;;;23.51;59.01;94230.72;5184699;22;20485;-79
2023/08/03 04:04:34;;;;;;;;;;;;;;;23.54;59.15;94235.56;5213172;22;19923;-78
2023/08/03 04:06:36;;;;;;;;;;;;;;;23.60;58.98;94229.22;5161779;23;19934;-79
2023/08/03 04:08:37;;;;;;;;;;;;;;;23.64;58.60;94232.19;5215951;22;19918;-79
2023/08/03 04:10:39;;;;;;;;;;;;;;;23.63;59.10;94225.22;5190191;22;19946;-80
2023/08/03 04:12:41;;;;;;;;;;;;;;;23.58;59.16;94231.34;5217728;22;19926;-78
2023/08/03 04:14:42;;;;;;;;;;;;;;;23.60;58.99;94234.56;5216994;22;19919;-79
2023/08/03 04:16:44;;;;;;;;;;;;;;;23.66;58.83;94236.25;5214244;22;19971;-79
2023/08/03 04:18:46;;;;;;;;;;;;;;;23.70;58.59;94237.34;5218117;22;20014;-83
2023/08/03 04:20:47;;;;;;;;;;;;;;;23.78;58.47;94243.34;5185508;22;20002;-79
2023/08/03 04:22:49;;;;;;;;;;;;;;;23.85;58.41;94243.94;5186634;22;19999;-80
2023/08/03 04:24:51;;;;;;;;;;;;;;;23.91;58.19;94241.03;5187446;22;20100;-81
2023/08/03 04:26:52;;;;;;;;;;;;;;;23.92;58.04;94245.34;5186875;22;19945;-81
2023/08/03 04:28:54;;;;;;;;;;;;;;;23.84;58.42;94251.16;5215643;22;20222;-81
2023/08/03 04:30:55;;;;;;;;;;;;;;;23.65;59.38;94241.84;5187127;22;19987;-80
2023/08/03 04:32:57;;;;;;;;;;;;;;;23.52;59.50;94246.50;5219110;22;19944;-80
2023/08/03 04:35:01;;;;;;;;;;;;;;;23.36;60.11;94250.09;5217786;22;19915;-78
2023/08/03 04:37:03;;;;;;;;;;;;;;;23.12;61.18;94254.03;5214003;22;20385;-80
2023/08/03 04:39:05;;;;;;;;;;;;;;;22.91;62.15;94253.75;5216449;22;20258;-81
2023/08/03 04:41:07;;;;;;;;;;;;;;;23.00;61.61;94254.97;5216803;22;19941;-81
2023/08/03 04:43:09;;;;;;;;;;;;;;;23.10;61.68;94256.94;5216726;22;19915;-80
2023/08/03 04:45:10;;;;;;;;;;;;;;;23.15;61.63;94253.56;5214258;22;19946;-80
2023/08/03 04:47:12;;;;;;;;;;;;;;;23.26;60.91;94255.28;5215519;22;19915;-82
2023/08/03 04:49:14;;;;;;;;;;;;;;;23.28;60.75;94259.34;5215485;22;19919;-78
2023/08/03 04:51:15;;;;;;;;;;;;;;;23.31;61.03;94253.47;5188217;22;19995;-81
2023/08/03 04:53:21;;;;;;;;;;;;;;;23.42;60.83;94264.28;5216132;22;19943;-80
2023/08/03 04:55:22;;;;;;;;;;;;;;;23.52;60.36;94270.56;5189123;22;19982;-81
2023/08/03 04:57:24;;;;;;;;;;;;;;;23.62;60.01;94261.88;5214025;22;19984;-81
2023/08/03 04:59:26;;;;;;;;;;;;;;;23.72;59.80;94269.19;5188977;22;20295;-81
2023/08/03 05:01:27;;;;;;;;;;;;;;;23.78;59.94;94273.56;5187155;22;19988;-80
2023/08/03 05:03:29;;;;;;;;;;;;;;;23.86;59.50;94274.97;5215299;22;20329;-81
2023/08/03 05:05:33;;;;;;;;;;;;;;;23.90;59.44;94276.09;5215865;22;19915;-79
2023/08/03 05:07:35;;;;;;;;;;;;;;;23.98;59.24;94274.81;5189934;22;19919;-81
2023/08/03 05:09:40;;;;;;;;;;;;;;;23.95;58.90;94267.31;5218304;22;20077;-85
2023/08/03 05:11:41;;;;;;;;;;;;;;;23.87;59.30;94265.88;5217568;22;19937;-79
2023/08/03 05:13:44;;;;;;;;;;;;;;;23.88;59.40;94276.34;5217484;22;19923;-80
2023/08/03 05:15:45;;;;;;;;;;;;;;;24.03;58.97;94280.22;5167858;22;19939;-78
2023/08/03 05:17:49;;;;;;;;;;;;;;;24.18;58.96;94272.34;5221288;22;20002;-81
2023/08/03 05:19:51;;;;;;;;;;;;;;;24.35;58.61;94274.91;5221233;22;19942;-80
2023/08/03 05:21:57;;;;;;;;;;;;;;;24.48;57.82;94276.34;5218611;22;19976;-78
2023/08/03 05:23:59;;;;;;;;;;;;;;;24.55;57.75;94276.16;5188385;22;19937;-81
2023/08/03 05:26:00;;;;;;;;;;;;;;;24.69;57.07;94277.31;5214891;22;19972;-81
2023/08/03 05:28:02;;;;;;;;;;;;;;;24.79;56.85;94282.75;5216509;22;19919;-81
2023/08/03 05:30:05;;;;;;;;;;;;;;;24.73;56.91;94275.72;5189526;22;19951;-82
2023/08/03 05:32:06;;;;;;;;;;;;;;;24.79;56.79;94281.94;5219528;22;19919;-82
2023/08/03 05:34:08;;;;;;;;;;;;;;;24.84;56.84;94281.97;5215129;22;19992;-81
2023/08/03 05:36:10;;;;;;;;;;;;;;;24.69;56.70;94282.66;5188382;22;19915;-80
2023/08/03 05:38:13;;;;;;;;;;;;;;;24.72;56.65;94282.16;5215565;22;19937;-81
2023/08/03 05:40:15;;;;;;;;;;;;;;;24.72;56.57;94284.84;5187568;22;20345;-79
2023/08/03 05:42:17;;;;;;;;;;;;;;;24.63;56.48;94289.88;5163375;22;20338;-82
2023/08/03 05:44:19;;;;;;;;;;;;;;;24.66;56.32;94284.00;5188970;22;19943;-80
2023/08/03 05:46:21;;;;;;;;;;;;;;;24.76;56.56;94287.78;5165101;22;19990;-79
2023/08/03 05:48:25;;;;;;;;;;;;;;;24.90;56.24;94287.09;5190773;22;20070;-79
2023/08/03 05:50:27;;;;;;;;;;;;;;;25.05;56.15;94288.25;5191085;22;20263;-82
2023/08/03 05:52:28;;;;;;;;;;;;;;;25.19;55.90;94286.75;5224460;22;20321;-80
2023/08/03 05:54:30;;;;;;;;;;;;;;;25.33;55.61;94289.78;5227133;22;19918;-80
2023/08/03 05:56:33;;;;;;;;;;;;;;;25.48;54.80;94294.41;5224046;22;20406;-84
2023/08/03 05:58:35;;;;;;;;;;;;;;;25.61;54.49;94293.91;5215380;22;20394;-80
2023/08/03 06:00:37;;;;;;;;;;;;;;;25.57;53.87;94292.81;5213905;22;19914;-81
2023/08/03 06:02:39;;;;;;;;;;;;;;;25.53;54.26;94294.41;5216576;22;20289;-80
2023/08/03 06:04:40;;;;;;;;;;;;;;;25.45;54.49;94295.75;5214697;22;20523;-80
2023/08/03 06:06:45;;;;;;;;;;;;;;;25.43;54.57;94294.38;5188466;22;19946;-81
2023/08/03 06:08:49;;;;;;;;;;;;;;;25.50;54.18;94305.69;5215687;22;20073;-81
2023/08/03 06:10:53;;;;;;;;;;;;;;;25.51;54.01;94301.91;5190095;22;20015;-81
2023/08/03 06:12:55;;;;;;;;;;;;;;;25.55;53.72;94300.31;5215140;22;19923;-79
2023/08/03 06:14:57;;;;;;;;;;;;;;;25.55;53.61;94294.97;5215672;22;19922;-82
2023/08/03 06:16:59;;;;;;;;;;;;;;;25.54;53.75;94298.72;5216530;22;20334;-81
2023/08/03 06:19:00;;;;;;;;;;;;;;;25.50;53.89;94298.44;5189238;22;19973;-83
2023/08/03 06:21:02;;;;;;;;;;;;;;;25.58;53.97;94299.81;5217323;22;19915;-82
2023/08/03 06:23:03;;;;;;;;;;;;;;;25.72;53.74;94302.81;5191808;22;19915;-78
2023/08/03 06:25:06;;;;;;;;;;;;;;;25.82;53.54;94302.03;5193521;22;19929;-80
2023/08/03 06:27:08;;;;;;;;;;;;;;;25.89;53.38;94303.41;5191337;22;20053;-81
2023/08/03 06:29:10;;;;;;;;;;;;;;;26.01;52.89;94300.50;5163606;22;19923;-80
2023/08/03 06:31:14;;;;;;;;;;;;;;;26.21;52.43;94296.25;5185058;22;19942;-79
2023/08/03 06:33:22;;;;;;;;;;;;;;;26.33;51.77;94305.66;5214512;22;19922;-81
2023/08/03 06:35:44;;;;;;;;;;;;;;;26.34;52.00;94296.50;5214228;22;19977;-81
2023/08/03 06:37:46;;;;;;;;;;;;;;;26.23;52.48;94302.16;5214099;22;19915;-79
2023/08/03 06:39:49;;;;;;;;;;;;;;;26.33;52.62;94307.53;5187543;22;20240;-79
2023/08/03 06:41:50;;;;;;;;;;;;;;;26.39;52.59;94303.75;5187948;22;20412;-81
2023/08/03 06:43:55;;;;;;;;;;;;;;;26.35;52.54;94308.88;5215556;22;19919;-83
2023/08/03 06:45:57;;;;;;;;;;;;;;;26.42;52.05;94308.63;5187309;22;20031;-80
2023/08/03 06:47:59;;;;;;;;;;;;;;;26.38;52.20;94310.22;5214704;22;19925;-81
2023/08/03 06:50:01;;;;;;;;;;;;;;;26.48;52.60;94304.88;5189845;22;20319;-81
2023/08/03 06:52:04;;;;;;;;;;;;;;;26.55;52.15;94305.41;5162464;22;19939;-84
2023/08/03 06:54:05;;;;;;;;;;;;;;;26.74;51.23;94307.59;5188493;22;19923;-79
2023/08/03 06:56:07;;;;;;;;;;;;;;;26.83;51.39;94300.59;5188113;22;20002;-80
2023/08/03 06:58:08;;;;;;;;;;;;;;;27.01;50.90;94298.41;5215702;22;19915;-85
2023/08/03 07:00:11;;;;;;;;;;;;;;;27.12;50.75;94295.41;5161875;22;19947;-81
2023/08/03 07:02:12;;;;;;;;;;;;;;;27.18;50.77;94301.59;5216654;22;19915;-81
2023/08/03 07:04:14;;;;;;;;;;;;;;;27.28;50.09;94301.59;5216058;22;20574;-82
2023/08/03 07:06:16;;;;;;;;;;;;;;;27.37;49.69;94297.25;5217551;22;20308;-82
2023/08/03 07:08:18;;;;;;;;;;;;;;;27.52;49.53;94295.63;5216303;22;19919;-83
2023/08/03 07:10:19;;;;;;;;;;;;;;;27.57;49.16;94290.19;5217803;22;19919;-81
2023/08/03 07:12:21;;;;;;;;;;;;;;;27.60;49.30;94295.03;5216903;22;19919;-80
2023/08/03 07:14:23;;;;;;;;;;;;;;;27.52;49.63;94292.91;5188657;22;19959;-84
2023/08/03 07:16:28;;;;;;;;;;;;;;;27.49;49.50;94298.84;5186681;22;19927;-81
2023/08/03 07:18:29;;;;;;;;;;;;;;;27.50;49.31;94298.56;5161255;22;19915;-80
2023/08/03 07:20:31;;;;;;;;;;;;;;;27.56;49.59;94297.47;5188985;22;19922;-81
2023/08/03 07:22:34;;;;;;;;;;;;;;;27.74;49.02;94293.34;5215352;22;20010;-82
2023/08/03 07:24:36;;;;;;;;;;;;;;;27.81;49.31;94300.31;5215132;22;19929;-82
2023/08/03 07:26:41;;;;;;;;;;;;;;;27.87;48.82;94293.88;5215882;22;19925;-83
2023/08/03 07:28:43;;;;;;;;;;;;;;;27.95;48.73;94287.91;5216239;22;19915;-81
2023/08/03 07:30:45;;;;;;;;;;;;;;;28.03;48.87;94289.19;5161583;22;19931;-81
2023/08/03 07:32:47;;;;;;;;;;;;;;;28.02;48.13;94287.59;5215168;22;19963;-81
2023/08/03 07:34:49;;;;;;;;;;;;;;;28.04;48.31;94293.50;5188076;22;19919;-80
2023/08/03 07:36:52;;;;;;;;;;;;;;;27.88;48.32;94290.91;5216166;22;20163;-81
2023/08/03 07:38:53;;;;;;;;;;;;;;;27.99;48.62;94283.56;5214472;22;20331;-80
2023/08/03 07:40:56;;;;;;;;;;;;;;;27.97;48.82;94291.13;5214660;22;20415;-79
2023/08/03 07:42:57;;;;;;;;;;;;;;;27.78;48.70;94283.66;5161100;22;19916;-83
2023/08/03 07:45:01;;;;;;;;;;;;;;;27.83;48.70;94284.69;5214284;22;20034;-80
2023/08/03 07:47:03;;;;;;;;;;;;;;;28.04;48.48;94286.22;5215068;22;19919;-81
2023/08/03 07:49:04;;;;;;;;;;;;;;;28.21;48.21;94285.06;5213820;22;19923;-82
2023/08/03 07:51:10;;;;;;;;;;;;;;;28.32;47.54;94286.59;5187841;22;20013;-82
2023/08/03 07:53:12;;;;;;;;;;;;;;;28.39;47.22;94289.75;5214447;22;19938;-82
2023/08/03 07:55:13;;;;;;;;;;;;;;;28.38;46.75;94286.28;5188011;22;20032;-83
2023/08/03 07:57:15;;;;;;;;;;;;;;;28.32;47.05;94284.69;5187325;22;19934;-83
2023/08/03 07:59:17;;;;;;;;;;;;;;;28.28;46.30;94280.16;5187375;22;19918;-81
2023/08/03 08:01:19;;;;;;;;;;;;;;;28.27;46.89;94286.63;5184512;22;19961;-79
2023/08/03 08:03:21;;;;;;;;;;;;;;;28.37;46.17;94278.47;5186828;22;19930;-81
2023/08/03 08:05:23;;;;;;;;;;;;;;;28.53;46.08;94280.00;5161305;22;19931;-83
2023/08/03 08:07:25;;;;;;;;;;;;;;;28.55;46.15;94285.91;5215991;22;19922;-83
2023/08/03 08:09:27;;;;;;;;;;;;;;;28.66;45.93;94277.75;5221426;22;19923;-82
2023/08/03 08:11:28;;;;;;;;;;;;;;;28.82;45.80;94281.09;5165814;22;19927;-81
2023/08/03 08:13:30;;;;;;;;;;;;;;;28.87;45.04;94281.06;5187942;22;20382;-81
2023/08/03 08:15:33;;;;;;;;;;;;;;;28.59;45.62;94284.25;5186234;22;20415;-83
2023/08/03 08:17:35;;;;;;;;;;;;;;;28.44;46.23;94280.84;5188052;22;19929;-81
2023/08/03 08:19:37;;;;;;;;;;;;;;;28.59;45.68;94278.88;5160363;23;19925;-81
2023/08/03 08:21:39;;;;;;;;;;;;;;;28.76;45.69;94266.84;5186986;22;19989;-83
2023/08/03 08:23:40;;;;;;;;;;;;;;;28.97;45.35;94276.38;5188365;22;19954;-84
2023/08/03 08:25:42;;;;;;;;;;;;;;;29.04;45.06;94272.53;5213607;22;19915;-82
2023/08/03 08:27:44;;;;;;;;;;;;;;;29.27;45.04;94271.75;5213524;22;20212;-83
2023/08/03 08:29:46;;;;;;;;;;;;;;;29.40;44.13;94270.28;5214239;22;19994;-80
2023/08/03 08:31:49;;;;;;;;;;;;;;;29.53;43.94;94264.16;5187073;22;19918;-80
2023/08/03 08:33:55;;;;;;;;;;;;;;;29.70;43.40;94269.13;5188268;22;19996;-83
2023/08/03 08:35:57;;;;;;;;;;;;;;;29.76;43.24;94259.06;5189129;22;19919;-82
2023/08/03 08:37:59;;;;;;;;;;;;;;;29.90;43.21;94257.28;5219749;22;20142;-81
2023/08/03 08:40:01;;;;;;;;;;;;;;;30.01;42.89;94256.03;5198531;22;19915;-80
2023/08/03 08:42:11;;;;;;;;;;;;;;;29.85;43.22;94264.63;5214822;22;19929;-82
2023/08/03 08:44:14;;;;;;;;;;;;;;;29.53;43.62;94252.59;5186160;22;20382;-82
2023/08/03 08:46:15;;;;;;;;;;;;;;;29.43;43.75;94260.78;5211818;22;19923;-80
2023/08/03 08:48:17;;;;;;;;;;;;;;;29.62;43.66;94256.28;5213324;22;19919;-81
2023/08/03 08:50:21;;;;;;;;;;;;;;;29.85;43.24;94253.81;5221534;22;19937;-82
2023/08/03 08:52:25;;;;;;;;;;;;;;;29.96;42.67;94250.69;5214758;22;19914;-81
2023/08/03 08:54:30;;;;;;;;;;;;;;;30.02;42.65;94254.13;5161373;23;20288;-85
2023/08/03 08:56:37;;;;;;;;;;;;;;;30.12;42.51;94250.50;5223055;22;19914;-82
2023/08/03 08:58:41;;;;;;;;;;;;;;;30.12;42.50;94253.97;5222124;22;19938;-80
2023/08/03 09:00:46;;;;;;;;;;;;;;;29.87;43.10;94248.94;5195071;22;19923;-82
2023/08/03 09:02:48;;;;;;;;;;;;;;;29.74;43.07;94253.97;5214145;22;19919;-83
2023/08/03 09:04:50;;;;;;;;;;;;;;;29.83;42.95;94247.91;5186679;22;19958;-82
2023/08/03 09:06:52;;;;;;;;;;;;;;;30.00;42.79;94250.91;5214056;22;19926;-82
2023/08/03 09:08:55;;;;;;;;;;;;;;;30.10;42.83;94244.56;5214611;22;19942;-80
2023/08/03 09:10:57;;;;;;;;;;;;;;;30.32;42.61;94236.69;5187481;22;20313;-80
2023/08/03 09:12:58;;;;;;;;;;;;;;;30.51;42.10;94242.06;5214457;22;20021;-81
2023/08/03 09:15:00;;;;;;;;;;;;;;;30.70;41.37;94236.59;5213844;22;19915;-81
2023/08/03 09:17:14;;;;;;;;;;;;;;;30.80;41.17;94236.44;5215124;22;19918;-81
2023/08/03 09:19:33;;;;;;;;;;;;;;;30.76;41.24;94237.31;5215530;22;19922;-81
2023/08/03 09:21:35;;;;;;;;;;;;;;;30.74;40.91;94228.69;5190888;22;19954;-83
2023/08/03 09:23:40;;;;;;;;;;;;;;;30.67;41.21;94225.56;5200441;22;19919;-81
2023/08/03 09:25:52;;;;;;;;;;;;;;;30.80;41.44;94232.91;5201824;22;19965;-79
2023/08/03 09:27:54;;;;;;;;;;;;;;;30.73;41.20;94227.88;5166672;22;19953;-82
2023/08/03 09:30:03;;;;;;;;;;;;;;;30.85;40.66;94227.44;5200285;22;19962;-81
2023/08/03 09:32:15;;;;;;;;;;;;;;;30.90;40.95;94224.66;5223522;22;19918;-83
2023/08/03 09:34:20;;;;;;;;;;;;;;;30.85;40.66;94224.72;5209335;22;19929;-81
2023/08/03 09:36:48;;;;;;;;;;;;;;;30.96;40.75;94228.06;5200721;22;19985;-81
2023/08/03 09:39:10;;;;;;;;;;;;;;;31.13;40.63;94220.16;5215363;22;20010;-81
2023/08/03 09:41:22;;;;;;;;;;;;;;;30.99;40.45;94222.84;5172582;22;20306;-83
2023/08/03 09:43:24;;;;;;;;;;;;;;;30.85;41.01;94211.19;5189438;22;19975;-82
2023/08/03 09:45:29;;;;;;;;;;;;;;;30.87;41.27;94211.75;5218671;22;19925;-81
2023/08/03 09:47:38;;;;;;;;;;;;;;;30.85;40.77;94210.38;5219016;22;19918;-80
2023/08/03 09:49:39;;;;;;;;;;;;;;;30.64;41.38;94205.34;5191705;22;19993;-82
2023/08/03 09:51:41;;;;;;;;;;;;;;;30.71;41.58;94210.38;5218343;22;20210;-81
2023/08/03 09:53:46;;;;;;;;;;;;;;;30.95;41.03;94211.03;5198363;22;19915;-81
2023/08/03 09:55:57;;;;;;;;;;;;;;;31.14;40.76;94212.84;5205285;22;19915;-80
2023/08/03 09:58:00;;;;;;;;;;;;;;;31.38;40.23;94210.72;5207585;22;19915;-80
2023/08/03 10:00:06;;;;;;;;;;;;;;;31.54;40.28;94205.84;5207237;22;19989;-79
2023/08/03 10:02:09;;;;;;;;;;;;;;;31.57;40.15;94204.44;5232902;22;19919;-84
2023/08/03 10:04:11;;;;;;;;;;;;;;;31.62;40.34;94198.91;5228414;22;19918;-84
2023/08/03 10:06:19;;;;;;;;;;;;;;;31.80;40.30;94202.59;5205278;22;19919;-81
2023/08/03 10:08:22;;;;;;;;;;;;;;;31.72;39.78;94195.19;5206055;22;19946;-80
2023/08/03 10:10:24;;;;;;;;;;;;;;;31.51;39.81;94195.59;5181813;22;19922;-81
2023/08/03 10:12:30;;;;;;;;;;;;;;;31.45;40.30;94190.59;5205020;22;19976;-82
2023/08/03 10:14:32;;;;;;;;;;;;;;;31.31;40.43;94183.28;5203466;22;19992;-83
2023/08/03 10:16:34;;;;;;;;;;;;;;;31.35;40.68;94187.00;5231561;22;20012;-79
2023/08/03 10:18:36;;;;;;;;;;;;;;;31.63;40.44;94186.97;5230283;22;19914;-78
2023/08/03 10:20:40;;;;;;;;;;;;;;;31.83;39.31;94180.31;5186342;22;19923;-79
2023/08/03 10:23:04;;;;;;;;;;;;;;;31.93;39.55;94180.06;5204063;22;19918;-85
2023/08/03 10:25:17;;;;;;;;;;;;;;;31.85;38.87;94172.66;5225787;22;19971;-81
2023/08/03 10:27:19;;;;;;;;;;;;;;;31.96;38.45;94173.25;5221551;22;19941;-82
2023/08/03 10:29:42;;;;;;;;;;;;;;;32.06;38.49;94159.50;5202111;22;20018;-81
2023/08/03 10:31:54;;;;;;;;;;;;;;;32.08;39.32;94156.47;5219044;22;19915;-81
2023/08/03 10:33:56;;;;;;;;;;;;;;;32.29;39.46;94163.00;5214735;22;19942;-80
2023/08/03 10:36:00;;;;;;;;;;;;;;;32.23;39.01;94156.91;5215778;22;19925;-84
2023/08/03 10:38:02;;;;;;;;;;;;;;;32.48;38.38;94154.66;5215285;22;19968;-81
2023/08/03 10:40:03;;;;;;;;;;;;;;;32.66;37.53;94154.78;5214559;22;19921;-81
2023/08/03 10:42:18;;;;;;;;;;;;;;;32.75;37.41;94156.41;5215466;22;19919;-85